sensor_id;sensor_type;location;lat;lon;timestamp;P1;durP1;ratioP1;P2;durP2;ratioP2
13975;SDS011;7062;49.792;9.946;2023-04-24T00:01:41;1.33;;;0.60;;
13975;SDS011;7062;49.792;9.946;2023-04-24T00:04:07;1.73;;;0.90;;
13975;SDS011;7062;49.792;9.946;2023-04-24T00:06:36;1.20;;;0.53;;
13975;SDS011;7062;49.792;9.946;2023-04-24T00:09:02;0.70;;;0.60;;
13975;SDS011;7062;49.792;9.946;2023-04-24T00:11:29;1.53;;;0.70;;
13975;SDS011;7062;49.792;9.946;2023-04-24T00:13:55;1.33;;;0.90;;
13975;SDS011;7062;49.792;9.946;2023-04-24T00:16:21;1.60;;;0.53;;
13975;SDS011;7062;49.792;9.946;2023-04-24T00:18:47;1.10;;;0.40;;
13975;SDS011;7062;49.792;9.946;2023-04-24T00:21:13;1.10;;;0.70;;
13975;SDS011;7062;49.792;9.946;2023-04-24T00:23:41;1.60;;;0.57;;
13975;SDS011;7062;49.792;9.946;2023-04-24T00:26:06;0.93;;;0.57;;
13975;SDS011;7062;49.792;9.946;2023-04-24T00:28:32;1.97;;;0.60;;
13975;SDS011;7062;49.792;9.946;2023-04-24T00:30:57;1.00;;;0.60;;
13975;SDS011;7062;49.792;9.946;2023-04-24T00:33:23;1.53;;;0.60;;
13975;SDS011;7062;49.792;9.946;2023-04-24T00:35:49;2.77;;;0.53;;
13975;SDS011;7062;49.792;9.946;2023-04-24T00:38:14;2.63;;;0.77;;
13975;SDS011;7062;49.792;9.946;2023-04-24T00:40:40;1.00;;;1.00;;
13975;SDS011;7062;49.792;9.946;2023-04-24T00:43:06;2.60;;;0.80;;
13975;SDS011;7062;49.792;9.946;2023-04-24T00:45:32;0.60;;;0.50;;
13975;SDS011;7062;49.792;9.946;2023-04-24T00:47:57;1.47;;;0.40;;
13975;SDS011;7062;49.792;9.946;2023-04-24T00:50:25;2.80;;;0.70;;
13975;SDS011;7062;49.792;9.946;2023-04-24T00:52:51;0.50;;;0.50;;
13975;SDS011;7062;49.792;9.946;2023-04-24T00:55:17;0.87;;;0.47;;
13975;SDS011;7062;49.792;9.946;2023-04-24T00:57:43;1.43;;;0.60;;
13975;SDS011;7062;49.792;9.946;2023-04-24T01:00:10;1.23;;;0.73;;
13975;SDS011;7062;49.792;9.946;2023-04-24T01:02:37;1.10;;;0.60;;
13975;SDS011;7062;49.792;9.946;2023-04-24T01:05:06;1.60;;;0.73;;
13975;SDS011;7062;49.792;9.946;2023-04-24T01:07:33;1.50;;;0.60;;
13975;SDS011;7062;49.792;9.946;2023-04-24T01:09:59;2.00;;;0.67;;
13975;SDS011;7062;49.792;9.946;2023-04-24T01:12:25;1.53;;;0.60;;
13975;SDS011;7062;49.792;9.946;2023-04-24T01:14:50;2.13;;;0.67;;
13975;SDS011;7062;49.792;9.946;2023-04-24T01:17:16;2.07;;;0.77;;
13975;SDS011;7062;49.792;9.946;2023-04-24T01:19:42;0.47;;;0.47;;
13975;SDS011;7062;49.792;9.946;2023-04-24T01:22:15;0.70;;;0.50;;
13975;SDS011;7062;49.792;9.946;2023-04-24T01:24:42;2.77;;;0.57;;
13975;SDS011;7062;49.792;9.946;2023-04-24T01:27:08;1.27;;;0.50;;
13975;SDS011;7062;49.792;9.946;2023-04-24T01:29:36;1.70;;;0.60;;
13975;SDS011;7062;49.792;9.946;2023-04-24T01:32:02;0.30;;;0.30;;
13975;SDS011;7062;49.792;9.946;2023-04-24T01:34:28;1.07;;;0.43;;
13975;SDS011;7062;49.792;9.946;2023-04-24T01:36:54;1.60;;;1.23;;
13975;SDS011;7062;49.792;9.946;2023-04-24T01:39:21;1.33;;;0.40;;
13975;SDS011;7062;49.792;9.946;2023-04-24T01:41:48;1.73;;;0.50;;
13975;SDS011;7062;49.792;9.946;2023-04-24T01:44:15;0.77;;;0.50;;
13975;SDS011;7062;49.792;9.946;2023-04-24T01:46:41;0.60;;;0.40;;
13975;SDS011;7062;49.792;9.946;2023-04-24T01:49:07;0.73;;;0.50;;
13975;SDS011;7062;49.792;9.946;2023-04-24T01:51:33;1.70;;;0.87;;
13975;SDS011;7062;49.792;9.946;2023-04-24T01:53:59;4.43;;;0.87;;
13975;SDS011;7062;49.792;9.946;2023-04-24T01:56:24;0.50;;;0.43;;
13975;SDS011;7062;49.792;9.946;2023-04-24T01:58:53;0.67;;;0.40;;
13975;SDS011;7062;49.792;9.946;2023-04-24T02:01:20;1.17;;;0.37;;
13975;SDS011;7062;49.792;9.946;2023-04-24T02:03:46;3.37;;;0.60;;
13975;SDS011;7062;49.792;9.946;2023-04-24T02:06:12;1.37;;;0.50;;
13975;SDS011;7062;49.792;9.946;2023-04-24T02:08:37;1.80;;;0.60;;
13975;SDS011;7062;49.792;9.946;2023-04-24T02:11:03;0.60;;;0.30;;
13975;SDS011;7062;49.792;9.946;2023-04-24T02:13:28;1.30;;;0.33;;
13975;SDS011;7062;49.792;9.946;2023-04-24T02:15:54;1.30;;;0.50;;
13975;SDS011;7062;49.792;9.946;2023-04-24T02:18:20;0.93;;;0.40;;
13975;SDS011;7062;49.792;9.946;2023-04-24T02:20:47;0.70;;;0.37;;
13975;SDS011;7062;49.792;9.946;2023-04-24T02:23:13;2.13;;;0.70;;
13975;SDS011;7062;49.792;9.946;2023-04-24T02:25:39;0.70;;;0.50;;
13975;SDS011;7062;49.792;9.946;2023-04-24T02:28:05;0.73;;;0.50;;
13975;SDS011;7062;49.792;9.946;2023-04-24T02:30:31;1.10;;;0.60;;
13975;SDS011;7062;49.792;9.946;2023-04-24T02:32:56;2.83;;;0.73;;
13975;SDS011;7062;49.792;9.946;2023-04-24T02:35:22;1.97;;;0.50;;
13975;SDS011;7062;49.792;9.946;2023-04-24T02:37:48;0.93;;;0.50;;
13975;SDS011;7062;49.792;9.946;2023-04-24T02:40:13;5.20;;;0.67;;
13975;SDS011;7062;49.792;9.946;2023-04-24T02:42:39;0.60;;;0.50;;
13975;SDS011;7062;49.792;9.946;2023-04-24T02:45:05;2.30;;;0.40;;
13975;SDS011;7062;49.792;9.946;2023-04-24T02:47:31;0.63;;;0.40;;
13975;SDS011;7062;49.792;9.946;2023-04-24T02:49:57;0.57;;;0.40;;
13975;SDS011;7062;49.792;9.946;2023-04-24T02:52:22;2.40;;;0.57;;
13975;SDS011;7062;49.792;9.946;2023-04-24T02:54:48;1.10;;;0.53;;
13975;SDS011;7062;49.792;9.946;2023-04-24T02:57:13;0.77;;;0.43;;
13975;SDS011;7062;49.792;9.946;2023-04-24T02:59:40;1.60;;;0.60;;
13975;SDS011;7062;49.792;9.946;2023-04-24T03:02:05;0.60;;;0.43;;
13975;SDS011;7062;49.792;9.946;2023-04-24T03:04:31;1.07;;;0.60;;
13975;SDS011;7062;49.792;9.946;2023-04-24T03:06:57;1.00;;;0.70;;
13975;SDS011;7062;49.792;9.946;2023-04-24T03:09:22;0.70;;;0.50;;
13975;SDS011;7062;49.792;9.946;2023-04-24T03:11:48;0.60;;;0.60;;
13975;SDS011;7062;49.792;9.946;2023-04-24T03:14:14;1.70;;;0.33;;
13975;SDS011;7062;49.792;9.946;2023-04-24T03:16:40;0.93;;;0.70;;
13975;SDS011;7062;49.792;9.946;2023-04-24T03:19:06;0.60;;;0.40;;
13975;SDS011;7062;49.792;9.946;2023-04-24T03:21:31;4.30;;;0.90;;
13975;SDS011;7062;49.792;9.946;2023-04-24T03:23:57;2.80;;;0.60;;
13975;SDS011;7062;49.792;9.946;2023-04-24T03:26:23;0.50;;;0.30;;
13975;SDS011;7062;49.792;9.946;2023-04-24T03:28:49;3.00;;;0.53;;
13975;SDS011;7062;49.792;9.946;2023-04-24T03:31:15;0.90;;;0.40;;
13975;SDS011;7062;49.792;9.946;2023-04-24T03:33:41;2.40;;;0.60;;
13975;SDS011;7062;49.792;9.946;2023-04-24T03:36:07;3.13;;;0.70;;
13975;SDS011;7062;49.792;9.946;2023-04-24T03:38:33;3.23;;;0.60;;
13975;SDS011;7062;49.792;9.946;2023-04-24T03:40:58;2.57;;;0.57;;
13975;SDS011;7062;49.792;9.946;2023-04-24T03:43:24;1.30;;;0.53;;
13975;SDS011;7062;49.792;9.946;2023-04-24T03:45:49;1.73;;;0.60;;
13975;SDS011;7062;49.792;9.946;2023-04-24T03:48:15;1.33;;;0.50;;
13975;SDS011;7062;49.792;9.946;2023-04-24T03:50:41;0.63;;;0.60;;
13975;SDS011;7062;49.792;9.946;2023-04-24T03:53:07;0.70;;;0.33;;
13975;SDS011;7062;49.792;9.946;2023-04-24T03:55:33;3.03;;;0.73;;
13975;SDS011;7062;49.792;9.946;2023-04-24T03:57:58;1.23;;;0.70;;
13975;SDS011;7062;49.792;9.946;2023-04-24T04:00:24;1.43;;;0.70;;
13975;SDS011;7062;49.792;9.946;2023-04-24T04:02:51;2.80;;;0.43;;
13975;SDS011;7062;49.792;9.946;2023-04-24T04:05:16;0.77;;;0.40;;
13975;SDS011;7062;49.792;9.946;2023-04-24T04:07:42;1.63;;;0.50;;
13975;SDS011;7062;49.792;9.946;2023-04-24T04:10:07;0.93;;;0.57;;
13975;SDS011;7062;49.792;9.946;2023-04-24T04:12:33;0.50;;;0.30;;
13975;SDS011;7062;49.792;9.946;2023-04-24T04:14:59;2.33;;;0.60;;
13975;SDS011;7062;49.792;9.946;2023-04-24T04:17:25;1.13;;;0.60;;
13975;SDS011;7062;49.792;9.946;2023-04-24T04:19:50;0.67;;;0.60;;
13975;SDS011;7062;49.792;9.946;2023-04-24T04:22:16;2.10;;;0.60;;
13975;SDS011;7062;49.792;9.946;2023-04-24T04:24:41;1.13;;;0.70;;
13975;SDS011;7062;49.792;9.946;2023-04-24T04:27:08;3.70;;;0.67;;
13975;SDS011;7062;49.792;9.946;2023-04-24T04:29:33;0.60;;;0.60;;
13975;SDS011;7062;49.792;9.946;2023-04-24T04:32:00;1.53;;;0.60;;
13975;SDS011;7062;49.792;9.946;2023-04-24T04:34:27;2.67;;;0.60;;
13975;SDS011;7062;49.792;9.946;2023-04-24T04:36:53;6.40;;;0.90;;
13975;SDS011;7062;49.792;9.946;2023-04-24T04:39:19;2.40;;;0.70;;
13975;SDS011;7062;49.792;9.946;2023-04-24T04:41:45;2.90;;;0.70;;
13975;SDS011;7062;49.792;9.946;2023-04-24T04:44:14;1.40;;;0.60;;
13975;SDS011;7062;49.792;9.946;2023-04-24T04:46:40;4.33;;;0.73;;
13975;SDS011;7062;49.792;9.946;2023-04-24T04:49:06;1.50;;;0.67;;
13975;SDS011;7062;49.792;9.946;2023-04-24T04:51:33;2.03;;;0.77;;
13975;SDS011;7062;49.792;9.946;2023-04-24T04:53:59;1.20;;;0.80;;
13975;SDS011;7062;49.792;9.946;2023-04-24T04:56:25;1.40;;;0.53;;
13975;SDS011;7062;49.792;9.946;2023-04-24T04:58:51;1.80;;;0.73;;
13975;SDS011;7062;49.792;9.946;2023-04-24T05:01:16;7.60;;;1.17;;
13975;SDS011;7062;49.792;9.946;2023-04-24T05:03:42;1.33;;;0.60;;
13975;SDS011;7062;49.792;9.946;2023-04-24T05:06:08;0.50;;;0.50;;
13975;SDS011;7062;49.792;9.946;2023-04-24T05:08:34;0.90;;;0.50;;
13975;SDS011;7062;49.792;9.946;2023-04-24T05:10:59;1.43;;;0.60;;
13975;SDS011;7062;49.792;9.946;2023-04-24T05:13:25;3.33;;;1.13;;
13975;SDS011;7062;49.792;9.946;2023-04-24T05:15:51;0.50;;;0.50;;
13975;SDS011;7062;49.792;9.946;2023-04-24T05:18:17;3.50;;;0.70;;
13975;SDS011;7062;49.792;9.946;2023-04-24T05:20:42;1.87;;;0.70;;
13975;SDS011;7062;49.792;9.946;2023-04-24T05:23:09;5.50;;;0.90;;
13975;SDS011;7062;49.792;9.946;2023-04-24T05:25:35;1.43;;;0.53;;
13975;SDS011;7062;49.792;9.946;2023-04-24T05:28:01;1.03;;;0.60;;
13975;SDS011;7062;49.792;9.946;2023-04-24T05:30:27;1.30;;;0.67;;
13975;SDS011;7062;49.792;9.946;2023-04-24T05:32:53;3.40;;;0.80;;
13975;SDS011;7062;49.792;9.946;2023-04-24T05:35:18;5.30;;;0.80;;
13975;SDS011;7062;49.792;9.946;2023-04-24T05:37:44;1.40;;;0.70;;
13975;SDS011;7062;49.792;9.946;2023-04-24T05:40:10;7.33;;;1.23;;
13975;SDS011;7062;49.792;9.946;2023-04-24T05:42:36;6.93;;;1.30;;
13975;SDS011;7062;49.792;9.946;2023-04-24T05:45:05;0.87;;;0.70;;
13975;SDS011;7062;49.792;9.946;2023-04-24T05:47:31;0.83;;;0.63;;
13975;SDS011;7062;49.792;9.946;2023-04-24T05:49:56;3.80;;;0.93;;
13975;SDS011;7062;49.792;9.946;2023-04-24T05:52:22;1.70;;;0.87;;
13975;SDS011;7062;49.792;9.946;2023-04-24T05:54:48;2.13;;;0.70;;
13975;SDS011;7062;49.792;9.946;2023-04-24T05:57:13;2.50;;;0.87;;
13975;SDS011;7062;49.792;9.946;2023-04-24T05:59:40;1.20;;;1.00;;
13975;SDS011;7062;49.792;9.946;2023-04-24T06:02:05;1.13;;;0.90;;
13975;SDS011;7062;49.792;9.946;2023-04-24T06:04:32;2.60;;;1.03;;
13975;SDS011;7062;49.792;9.946;2023-04-24T06:06:58;1.40;;;1.10;;
13975;SDS011;7062;49.792;9.946;2023-04-24T06:09:25;1.23;;;0.80;;
13975;SDS011;7062;49.792;9.946;2023-04-24T06:11:51;1.13;;;1.00;;
13975;SDS011;7062;49.792;9.946;2023-04-24T06:14:19;1.07;;;0.90;;
13975;SDS011;7062;49.792;9.946;2023-04-24T06:16:46;0.80;;;0.63;;
13975;SDS011;7062;49.792;9.946;2023-04-24T06:19:11;1.10;;;1.00;;
13975;SDS011;7062;49.792;9.946;2023-04-24T06:21:37;1.17;;;0.87;;
13975;SDS011;7062;49.792;9.946;2023-04-24T06:24:03;1.10;;;1.00;;
13975;SDS011;7062;49.792;9.946;2023-04-24T06:26:29;4.13;;;1.90;;
13975;SDS011;7062;49.792;9.946;2023-04-24T06:28:55;1.23;;;0.87;;
13975;SDS011;7062;49.792;9.946;2023-04-24T06:31:21;2.53;;;0.80;;
13975;SDS011;7062;49.792;9.946;2023-04-24T06:33:48;1.40;;;0.93;;
13975;SDS011;7062;49.792;9.946;2023-04-24T06:36:14;2.13;;;0.80;;
13975;SDS011;7062;49.792;9.946;2023-04-24T06:38:40;1.60;;;0.70;;
13975;SDS011;7062;49.792;9.946;2023-04-24T06:41:06;0.83;;;0.80;;
13975;SDS011;7062;49.792;9.946;2023-04-24T06:43:33;0.90;;;0.80;;
13975;SDS011;7062;49.792;9.946;2023-04-24T06:45:59;1.23;;;1.10;;
13975;SDS011;7062;49.792;9.946;2023-04-24T06:48:25;1.77;;;0.87;;
13975;SDS011;7062;49.792;9.946;2023-04-24T06:50:51;3.90;;;1.20;;
13975;SDS011;7062;49.792;9.946;2023-04-24T06:53:17;2.97;;;0.77;;
13975;SDS011;7062;49.792;9.946;2023-04-24T06:55:43;2.50;;;1.07;;
13975;SDS011;7062;49.792;9.946;2023-04-24T06:58:10;2.60;;;0.90;;
13975;SDS011;7062;49.792;9.946;2023-04-24T07:00:36;2.83;;;0.90;;
13975;SDS011;7062;49.792;9.946;2023-04-24T07:03:02;1.00;;;0.87;;
13975;SDS011;7062;49.792;9.946;2023-04-24T07:05:30;1.30;;;1.00;;
13975;SDS011;7062;49.792;9.946;2023-04-24T07:07:55;2.07;;;1.00;;
13975;SDS011;7062;49.792;9.946;2023-04-24T07:10:23;1.23;;;1.10;;
13975;SDS011;7062;49.792;9.946;2023-04-24T07:12:49;2.43;;;1.10;;
13975;SDS011;7062;49.792;9.946;2023-04-24T07:15:15;1.90;;;1.20;;
13975;SDS011;7062;49.792;9.946;2023-04-24T07:17:41;0.73;;;0.73;;
13975;SDS011;7062;49.792;9.946;2023-04-24T07:20:09;2.07;;;1.00;;
13975;SDS011;7062;49.792;9.946;2023-04-24T07:22:39;1.23;;;1.00;;
13975;SDS011;7062;49.792;9.946;2023-04-24T07:25:05;4.80;;;1.20;;
13975;SDS011;7062;49.792;9.946;2023-04-24T07:27:31;1.83;;;1.20;;
13975;SDS011;7062;49.792;9.946;2023-04-24T07:29:59;1.50;;;1.07;;
13975;SDS011;7062;49.792;9.946;2023-04-24T07:32:24;2.43;;;1.10;;
13975;SDS011;7062;49.792;9.946;2023-04-24T07:34:50;4.33;;;1.43;;
13975;SDS011;7062;49.792;9.946;2023-04-24T07:37:15;1.87;;;0.93;;
13975;SDS011;7062;49.792;9.946;2023-04-24T07:39:41;4.57;;;1.03;;
13975;SDS011;7062;49.792;9.946;2023-04-24T07:42:07;1.93;;;1.20;;
13975;SDS011;7062;49.792;9.946;2023-04-24T07:44:33;1.30;;;1.10;;
13975;SDS011;7062;49.792;9.946;2023-04-24T07:46:58;1.40;;;1.30;;
13975;SDS011;7062;49.792;9.946;2023-04-24T07:49:24;5.27;;;1.37;;
13975;SDS011;7062;49.792;9.946;2023-04-24T07:51:50;1.57;;;1.47;;
13975;SDS011;7062;49.792;9.946;2023-04-24T07:54:16;2.37;;;1.30;;
13975;SDS011;7062;49.792;9.946;2023-04-24T07:56:43;3.63;;;1.97;;
13975;SDS011;7062;49.792;9.946;2023-04-24T07:59:09;1.33;;;1.20;;
13975;SDS011;7062;49.792;9.946;2023-04-24T08:01:36;3.60;;;1.37;;
13975;SDS011;7062;49.792;9.946;2023-04-24T08:04:02;1.83;;;1.33;;
13975;SDS011;7062;49.792;9.946;2023-04-24T08:06:27;3.10;;;1.40;;
13975;SDS011;7062;49.792;9.946;2023-04-24T08:08:58;1.40;;;1.20;;
13975;SDS011;7062;49.792;9.946;2023-04-24T08:11:24;3.53;;;2.00;;
13975;SDS011;7062;49.792;9.946;2023-04-24T08:13:50;2.57;;;1.23;;
13975;SDS011;7062;49.792;9.946;2023-04-24T08:16:16;2.03;;;1.30;;
13975;SDS011;7062;49.792;9.946;2023-04-24T08:18:41;2.90;;;1.50;;
13975;SDS011;7062;49.792;9.946;2023-04-24T08:21:07;2.20;;;1.40;;
13975;SDS011;7062;49.792;9.946;2023-04-24T08:23:33;1.80;;;1.10;;
13975;SDS011;7062;49.792;9.946;2023-04-24T08:25:58;2.70;;;1.40;;
13975;SDS011;7062;49.792;9.946;2023-04-24T08:28:24;1.90;;;1.30;;
13975;SDS011;7062;49.792;9.946;2023-04-24T08:30:50;1.37;;;1.27;;
13975;SDS011;7062;49.792;9.946;2023-04-24T08:33:19;0.93;;;0.90;;
13975;SDS011;7062;49.792;9.946;2023-04-24T08:35:46;2.10;;;1.40;;
13975;SDS011;7062;49.792;9.946;2023-04-24T08:38:12;1.77;;;1.67;;
13975;SDS011;7062;49.792;9.946;2023-04-24T08:40:37;3.00;;;1.20;;
13975;SDS011;7062;49.792;9.946;2023-04-24T08:43:04;1.90;;;1.40;;
13975;SDS011;7062;49.792;9.946;2023-04-24T08:45:30;4.03;;;1.40;;
13975;SDS011;7062;49.792;9.946;2023-04-24T08:47:57;3.00;;;1.33;;
13975;SDS011;7062;49.792;9.946;2023-04-24T08:50:24;2.77;;;1.53;;
13975;SDS011;7062;49.792;9.946;2023-04-24T08:52:51;3.60;;;1.80;;
13975;SDS011;7062;49.792;9.946;2023-04-24T08:55:22;1.47;;;1.33;;
13975;SDS011;7062;49.792;9.946;2023-04-24T08:57:50;1.47;;;0.90;;
13975;SDS011;7062;49.792;9.946;2023-04-24T09:00:20;1.37;;;0.90;;
13975;SDS011;7062;49.792;9.946;2023-04-24T09:02:47;2.23;;;0.90;;
13975;SDS011;7062;49.792;9.946;2023-04-24T09:05:16;1.73;;;0.90;;
13975;SDS011;7062;49.792;9.946;2023-04-24T09:07:44;0.80;;;0.60;;
13975;SDS011;7062;49.792;9.946;2023-04-24T09:10:13;1.17;;;0.90;;
13975;SDS011;7062;49.792;9.946;2023-04-24T09:12:40;4.30;;;0.80;;
13975;SDS011;7062;49.792;9.946;2023-04-24T09:15:07;2.17;;;0.67;;
13975;SDS011;7062;49.792;9.946;2023-04-24T09:17:33;1.40;;;0.60;;
13975;SDS011;7062;49.792;9.946;2023-04-24T09:20:00;1.33;;;0.70;;
13975;SDS011;7062;49.792;9.946;2023-04-24T09:22:28;1.93;;;0.60;;
13975;SDS011;7062;49.792;9.946;2023-04-24T09:25:03;2.13;;;0.40;;
13975;SDS011;7062;49.792;9.946;2023-04-24T09:27:32;1.60;;;0.60;;
13975;SDS011;7062;49.792;9.946;2023-04-24T09:29:58;1.90;;;0.60;;
13975;SDS011;7062;49.792;9.946;2023-04-24T09:32:25;1.00;;;0.60;;
13975;SDS011;7062;49.792;9.946;2023-04-24T09:37:39;1.80;;;0.70;;
13975;SDS011;7062;49.792;9.946;2023-04-24T09:40:07;0.87;;;0.67;;
13975;SDS011;7062;49.792;9.946;2023-04-24T09:42:37;2.17;;;0.80;;
13975;SDS011;7062;49.792;9.946;2023-04-24T09:45:04;0.83;;;0.60;;
13975;SDS011;7062;49.792;9.946;2023-04-24T09:47:36;0.97;;;0.70;;
13975;SDS011;7062;49.792;9.946;2023-04-24T09:50:09;1.00;;;0.50;;
13975;SDS011;7062;49.792;9.946;2023-04-24T09:52:40;0.93;;;0.60;;
13975;SDS011;7062;49.792;9.946;2023-04-24T09:55:16;0.93;;;0.67;;
13975;SDS011;7062;49.792;9.946;2023-04-24T09:58:02;0.77;;;0.57;;
13975;SDS011;7062;49.792;9.946;2023-04-24T10:00:33;0.83;;;0.73;;
13975;SDS011;7062;49.792;9.946;2023-04-24T10:03:01;0.50;;;0.50;;
13975;SDS011;7062;49.792;9.946;2023-04-24T10:05:34;0.80;;;0.80;;
13975;SDS011;7062;49.792;9.946;2023-04-24T10:10:28;1.70;;;1.00;;
13975;SDS011;7062;49.792;9.946;2023-04-24T10:12:55;0.90;;;0.87;;
13975;SDS011;7062;49.792;9.946;2023-04-24T10:15:21;1.20;;;1.10;;
13975;SDS011;7062;49.792;9.946;2023-04-24T10:17:48;2.07;;;0.93;;
13975;SDS011;7062;49.792;9.946;2023-04-24T10:20:37;1.23;;;0.90;;
13975;SDS011;7062;49.792;9.946;2023-04-24T10:23:04;3.30;;;1.23;;
13975;SDS011;7062;49.792;9.946;2023-04-24T10:25:31;2.53;;;1.13;;
13975;SDS011;7062;49.792;9.946;2023-04-24T10:27:59;0.97;;;0.77;;
13975;SDS011;7062;49.792;9.946;2023-04-24T10:30:32;1.33;;;1.10;;
13975;SDS011;7062;49.792;9.946;2023-04-24T10:33:00;1.07;;;0.93;;
13975;SDS011;7062;49.792;9.946;2023-04-24T10:35:30;0.93;;;0.87;;
13975;SDS011;7062;49.792;9.946;2023-04-24T10:37:58;2.97;;;1.40;;
13975;SDS011;7062;49.792;9.946;2023-04-24T10:40:32;2.83;;;1.27;;
13975;SDS011;7062;49.792;9.946;2023-04-24T10:42:59;1.50;;;1.30;;
13975;SDS011;7062;49.792;9.946;2023-04-24T10:45:26;1.50;;;1.00;;
13975;SDS011;7062;49.792;9.946;2023-04-24T10:50:21;2.53;;;1.23;;
13975;SDS011;7062;49.792;9.946;2023-04-24T10:52:47;3.30;;;1.37;;
13975;SDS011;7062;49.792;9.946;2023-04-24T10:55:16;1.60;;;1.50;;
13975;SDS011;7062;49.792;9.946;2023-04-24T10:58:02;1.43;;;1.33;;
13975;SDS011;7062;49.792;9.946;2023-04-24T11:00:29;1.20;;;1.10;;
13975;SDS011;7062;49.792;9.946;2023-04-24T11:02:55;5.70;;;1.43;;
13975;SDS011;7062;49.792;9.946;2023-04-24T11:05:22;1.33;;;1.17;;
13975;SDS011;7062;49.792;9.946;2023-04-24T11:08:21;1.10;;;1.00;;
13975;SDS011;7062;49.792;9.946;2023-04-24T11:11:15;2.50;;;1.00;;
13975;SDS011;7062;49.792;9.946;2023-04-24T11:19:09;4.57;;;1.30;;
13975;SDS011;7062;49.792;9.946;2023-04-24T11:21:42;1.83;;;0.97;;
13975;SDS011;7062;49.792;9.946;2023-04-24T11:24:27;2.03;;;1.30;;
13975;SDS011;7062;49.792;9.946;2023-04-24T11:27:20;1.53;;;1.10;;
13975;SDS011;7062;49.792;9.946;2023-04-24T11:29:49;1.40;;;1.20;;
13975;SDS011;7062;49.792;9.946;2023-04-24T11:32:28;1.20;;;1.10;;
13975;SDS011;7062;49.792;9.946;2023-04-24T11:37:26;1.50;;;1.20;;
13975;SDS011;7062;49.792;9.946;2023-04-24T11:40:01;1.63;;;1.23;;
13975;SDS011;7062;49.792;9.946;2023-04-24T11:42:27;1.60;;;1.10;;
13975;SDS011;7062;49.792;9.946;2023-04-24T11:44:58;1.50;;;1.00;;
13975;SDS011;7062;49.792;9.946;2023-04-24T11:47:31;1.70;;;1.00;;
13975;SDS011;7062;49.792;9.946;2023-04-24T11:49:58;1.27;;;1.00;;
13975;SDS011;7062;49.792;9.946;2023-04-24T11:52:29;3.53;;;1.10;;
13975;SDS011;7062;49.792;9.946;2023-04-24T11:54:55;0.90;;;0.70;;
13975;SDS011;7062;49.792;9.946;2023-04-24T11:57:21;2.73;;;1.20;;
13975;SDS011;7062;49.792;9.946;2023-04-24T11:59:48;1.80;;;0.90;;
13975;SDS011;7062;49.792;9.946;2023-04-24T12:02:21;1.43;;;1.10;;
13975;SDS011;7062;49.792;9.946;2023-04-24T12:04:47;1.10;;;0.77;;
13975;SDS011;7062;49.792;9.946;2023-04-24T12:07:13;1.27;;;0.90;;
13975;SDS011;7062;49.792;9.946;2023-04-24T12:12:07;1.10;;;0.90;;
13975;SDS011;7062;49.792;9.946;2023-04-24T12:14:41;1.10;;;1.00;;
13975;SDS011;7062;49.792;9.946;2023-04-24T12:17:08;0.80;;;0.80;;
13975;SDS011;7062;49.792;9.946;2023-04-24T12:19:33;1.73;;;0.70;;
13975;SDS011;7062;49.792;9.946;2023-04-24T12:22:00;2.10;;;1.20;;
13975;SDS011;7062;49.792;9.946;2023-04-24T12:24:27;1.50;;;0.70;;
13975;SDS011;7062;49.792;9.946;2023-04-24T12:26:53;2.30;;;0.80;;
13975;SDS011;7062;49.792;9.946;2023-04-24T12:29:19;1.80;;;0.87;;
13975;SDS011;7062;49.792;9.946;2023-04-24T12:31:46;1.23;;;0.70;;
13975;SDS011;7062;49.792;9.946;2023-04-24T12:34:21;1.33;;;0.80;;
13975;SDS011;7062;49.792;9.946;2023-04-24T12:36:48;1.07;;;0.70;;
13975;SDS011;7062;49.792;9.946;2023-04-24T12:39:17;1.33;;;0.87;;
13975;SDS011;7062;49.792;9.946;2023-04-24T12:41:50;0.93;;;0.70;;
13975;SDS011;7062;49.792;9.946;2023-04-24T12:44:28;1.93;;;0.77;;
13975;SDS011;7062;49.792;9.946;2023-04-24T12:46:59;1.80;;;0.83;;
13975;SDS011;7062;49.792;9.946;2023-04-24T12:49:25;1.03;;;0.80;;
13975;SDS011;7062;49.792;9.946;2023-04-24T12:51:51;0.60;;;0.60;;
13975;SDS011;7062;49.792;9.946;2023-04-24T12:54:17;1.17;;;1.07;;
13975;SDS011;7062;49.792;9.946;2023-04-24T12:56:43;3.40;;;0.70;;
13975;SDS011;7062;49.792;9.946;2023-04-24T12:59:09;2.10;;;0.67;;
13975;SDS011;7062;49.792;9.946;2023-04-24T13:01:34;0.80;;;0.70;;
13975;SDS011;7062;49.792;9.946;2023-04-24T13:04:00;1.10;;;1.00;;
13975;SDS011;7062;49.792;9.946;2023-04-24T13:06:26;1.40;;;0.80;;
13975;SDS011;7062;49.792;9.946;2023-04-24T13:08:52;1.30;;;0.83;;
13975;SDS011;7062;49.792;9.946;2023-04-24T13:11:19;1.57;;;0.63;;
13975;SDS011;7062;49.792;9.946;2023-04-24T13:13:46;2.23;;;0.80;;
13975;SDS011;7062;49.792;9.946;2023-04-24T13:16:12;1.17;;;1.07;;
13975;SDS011;7062;49.792;9.946;2023-04-24T13:18:38;1.70;;;1.20;;
13975;SDS011;7062;49.792;9.946;2023-04-24T13:21:04;2.37;;;1.20;;
13975;SDS011;7062;49.792;9.946;2023-04-24T13:23:29;1.60;;;1.17;;
13975;SDS011;7062;49.792;9.946;2023-04-24T13:25:55;1.33;;;0.90;;
13975;SDS011;7062;49.792;9.946;2023-04-24T13:28:24;0.97;;;0.97;;
13975;SDS011;7062;49.792;9.946;2023-04-24T13:30:50;2.93;;;1.00;;
13975;SDS011;7062;49.792;9.946;2023-04-24T13:33:16;1.43;;;1.00;;
13975;SDS011;7062;49.792;9.946;2023-04-24T13:35:42;1.17;;;1.10;;
13975;SDS011;7062;49.792;9.946;2023-04-24T13:38:07;1.40;;;1.10;;
13975;SDS011;7062;49.792;9.946;2023-04-24T13:40:33;1.17;;;1.00;;
13975;SDS011;7062;49.792;9.946;2023-04-24T13:42:59;3.27;;;1.90;;
13975;SDS011;7062;49.792;9.946;2023-04-24T13:45:25;2.63;;;1.13;;
13975;SDS011;7062;49.792;9.946;2023-04-24T13:47:51;4.63;;;1.07;;
13975;SDS011;7062;49.792;9.946;2023-04-24T13:50:18;1.30;;;1.20;;
13975;SDS011;7062;49.792;9.946;2023-04-24T13:52:45;1.50;;;1.40;;
13975;SDS011;7062;49.792;9.946;2023-04-24T13:55:10;1.73;;;1.20;;
13975;SDS011;7062;49.792;9.946;2023-04-24T13:57:36;1.73;;;1.33;;
13975;SDS011;7062;49.792;9.946;2023-04-24T14:00:02;1.40;;;1.07;;
13975;SDS011;7062;49.792;9.946;2023-04-24T14:02:29;3.47;;;1.57;;
13975;SDS011;7062;49.792;9.946;2023-04-24T14:04:54;8.63;;;1.70;;
13975;SDS011;7062;49.792;9.946;2023-04-24T14:07:20;1.67;;;1.37;;
13975;SDS011;7062;49.792;9.946;2023-04-24T14:09:46;1.37;;;1.20;;
13975;SDS011;7062;49.792;9.946;2023-04-24T14:12:12;1.13;;;0.97;;
13975;SDS011;7062;49.792;9.946;2023-04-24T14:14:39;1.00;;;0.90;;
13975;SDS011;7062;49.792;9.946;2023-04-24T14:17:04;1.87;;;1.23;;
13975;SDS011;7062;49.792;9.946;2023-04-24T14:19:30;1.23;;;1.13;;
13975;SDS011;7062;49.792;9.946;2023-04-24T14:21:56;1.97;;;1.30;;
13975;SDS011;7062;49.792;9.946;2023-04-24T14:24:23;2.00;;;1.40;;
13975;SDS011;7062;49.792;9.946;2023-04-24T14:26:49;2.30;;;1.37;;
13975;SDS011;7062;49.792;9.946;2023-04-24T14:29:14;2.53;;;1.57;;
13975;SDS011;7062;49.792;9.946;2023-04-24T14:31:41;2.47;;;1.33;;
13975;SDS011;7062;49.792;9.946;2023-04-24T14:34:07;3.63;;;1.00;;
13975;SDS011;7062;49.792;9.946;2023-04-24T14:36:33;1.63;;;1.53;;
13975;SDS011;7062;49.792;9.946;2023-04-24T14:38:58;1.70;;;1.20;;
13975;SDS011;7062;49.792;9.946;2023-04-24T14:41:24;2.13;;;1.60;;
13975;SDS011;7062;49.792;9.946;2023-04-24T14:43:50;3.80;;;2.10;;
13975;SDS011;7062;49.792;9.946;2023-04-24T14:46:15;2.47;;;1.50;;
13975;SDS011;7062;49.792;9.946;2023-04-24T14:48:41;1.90;;;1.60;;
13975;SDS011;7062;49.792;9.946;2023-04-24T14:51:07;2.93;;;1.90;;
13975;SDS011;7062;49.792;9.946;2023-04-24T14:53:32;3.20;;;1.70;;
13975;SDS011;7062;49.792;9.946;2023-04-24T14:55:58;2.67;;;1.30;;
13975;SDS011;7062;49.792;9.946;2023-04-24T14:58:24;2.07;;;1.03;;
13975;SDS011;7062;49.792;9.946;2023-04-24T15:00:49;1.53;;;1.10;;
13975;SDS011;7062;49.792;9.946;2023-04-24T15:03:17;2.00;;;1.43;;
13975;SDS011;7062;49.792;9.946;2023-04-24T15:05:43;1.87;;;1.30;;
13975;SDS011;7062;49.792;9.946;2023-04-24T15:08:09;1.63;;;1.33;;
13975;SDS011;7062;49.792;9.946;2023-04-24T15:10:35;2.17;;;1.60;;
13975;SDS011;7062;49.792;9.946;2023-04-24T15:13:01;1.40;;;1.30;;
13975;SDS011;7062;49.792;9.946;2023-04-24T15:15:26;1.30;;;1.20;;
13975;SDS011;7062;49.792;9.946;2023-04-24T15:17:52;2.23;;;1.50;;